Time;durP1;ratioP1;P1;durP2;ratioP2;P2;SDS_P1;SDS_P2;PMS_P1;PMS_P2;Temp;Humidity;BMP_temperature;BMP_pressure;BME280_temperature;BME280_humidity;BME280_pressure;Samples;Min_cycle;Max_cycle;Signal;HPM_P1;HPM_P2
2021/09/27 00:02:11;;;;;;;2.88;2.78;;;;;;;9.69;83.84;100116.75;6342330;22;20024;-74
2021/09/27 00:04:56;;;;;;;1.63;1.63;;;;;;;9.72;83.56;100124.44;6364785;22;20033;-75
2021/09/27 00:07:40;;;;;;;2.13;2.03;;;;;;;9.72;83.13;100132.25;6366148;22;20029;-76
2021/09/27 00:10:30;;;;;;;2.58;2.38;;;;;;;9.72;83.95;100130.50;6342606;22;20365;-76
2021/09/27 00:13:14;;;;;;;2.13;2.03;;;;;;;9.74;83.56;100138.25;6342589;22;20062;-74
2021/09/27 00:15:59;;;;;;;3.03;2.83;;;;;;;9.71;84.38;100141.03;6367243;22;20028;-74
2021/09/27 00:18:44;;;;;;;4.22;3.83;;;;;;;9.74;83.53;100135.66;6366875;22;20395;-75
2021/09/27 00:21:30;;;;;;;2.85;2.75;;;;;;;9.70;83.66;100139.31;6367931;22;20026;-74
2021/09/27 00:24:15;;;;;;;2.47;2.30;;;;;;;9.76;82.99;100144.25;6367776;22;20047;-76
2021/09/27 00:26:59;;;;;;;2.70;2.55;;;;;;;9.72;83.52;100140.06;6367966;22;20029;-76
2021/09/27 00:29:44;;;;;;;4.13;2.50;;;;;;;9.71;83.83;100141.88;6367994;22;20033;-76
2021/09/27 00:32:28;;;;;;;2.45;2.25;;;;;;;9.74;83.15;100148.69;6366572;22;20071;-74
2021/09/27 00:35:15;;;;;;;4.32;2.63;;;;;;;9.74;83.20;100157.38;6367664;22;20122;-74
2021/09/27 00:37:59;;;;;;;2.45;2.35;;;;;;;9.73;83.71;100163.47;6368043;22;20067;-75
2021/09/27 00:40:50;;;;;;;2.83;2.72;;;;;;;9.72;83.39;100147.91;6344240;22;20420;-75
2021/09/27 00:43:37;;;;;;;9.40;3.30;;;;;;;9.70;83.26;100152.34;6367741;22;20030;-77
2021/09/27 00:46:23;;;;;;;2.85;2.75;;;;;;;9.67;83.32;100150.75;6367417;22;20526;-75
2021/09/27 00:49:07;;;;;;;2.40;2.30;;;;;;;9.65;83.28;100149.13;6367675;22;20041;-73
2021/09/27 00:51:52;;;;;;;6.60;3.80;;;;;;;9.65;83.19;100162.16;6367642;22;20029;-75
2021/09/27 00:54:36;;;;;;;3.38;3.17;;;;;;;9.58;83.86;100171.16;6344008;22;20045;-78
2021/09/27 00:57:22;;;;;;;3.55;3.33;;;;;;;9.57;83.97;100164.25;6367346;22;20371;-77
2021/09/27 01:00:09;;;;;;;4.32;2.85;;;;;;;9.59;83.73;100183.25;6343887;22;20484;-76
2021/09/27 01:02:53;;;;;;;3.05;2.85;;;;;;;9.58;83.81;100182.44;6366464;22;20029;-75
2021/09/27 01:05:40;;;;;;;4.10;3.75;;;;;;;9.55;83.77;100182.59;6367373;22;20032;-75
2021/09/27 01:08:37;;;;;;;4.38;4.07;;;;;;;9.55;83.39;100197.38;6366056;22;20124;-76
2021/09/27 01:11:45;;;;;;;4.60;4.30;;;;;;;9.59;83.88;100209.34;6365779;22;20029;-75
2021/09/27 01:14:55;;;;;;;2.53;2.42;;;;;;;9.58;84.10;100207.66;6367375;22;20030;-75
2021/09/27 01:18:09;;;;;;;3.50;3.28;;;;;;;9.54;84.11;100200.88;6367330;22;20029;-74
2021/09/27 01:21:03;;;;;;;2.25;2.20;;;;;;;9.53;82.81;100207.00;6365994;22;20026;-75
2021/09/27 01:24:21;;;;;;;2.60;2.50;;;;;;;9.58;83.85;100210.28;6343951;22;20085;-74
2021/09/27 01:27:29;;;;;;;3.78;3.55;;;;;;;9.55;83.39;100207.81;6365909;22;20420;-76
2021/09/27 01:30:42;;;;;;;2.42;2.00;;;;;;;9.56;83.48;100219.91;6377856;22;20484;-75
2021/09/27 01:33:40;;;;;;;2.17;2.08;;;;;;;9.57;82.84;100226.81;6382719;22;20044;-75
2021/09/27 01:36:44;;;;;;;21.45;3.00;;;;;;;9.57;83.51;100234.63;6378001;22;20194;-74
2021/09/27 01:39:33;;;;;;;2.85;2.72;;;;;;;9.53;82.94;100214.81;6371392;22;20028;-73
2021/09/27 01:42:26;;;;;;;3.95;2.50;;;;;;;9.54;83.17;100242.59;6344120;22;20029;-74
2021/09/27 01:45:39;;;;;;;2.63;2.53;;;;;;;9.56;82.68;100245.97;6367150;22;20492;-74
2021/09/27 01:48:31;;;;;;;3.20;3.00;;;;;;;9.52;83.35;100247.84;6336258;22;20029;-74
2021/09/27 01:51:21;;;;;;;3.05;2.90;;;;;;;9.50;83.69;100254.06;6365536;22;20030;-75
2021/09/27 01:54:19;;;;;;;3.30;3.10;;;;;;;9.48;83.33;100248.94;6367017;22;20105;-74
2021/09/27 01:57:37;;;;;;;2.28;2.17;;;;;;;9.53;83.45;100251.31;6365727;22;20025;-75
2021/09/27 02:00:27;;;;;;;2.88;2.67;;;;;;;9.53;82.89;100253.91;6367106;22;20518;-75
2021/09/27 02:03:16;;;;;;;3.75;3.50;;;;;;;9.46;83.45;100271.59;6343719;22;20025;-76
2021/09/27 02:06:02;;;;;;;3.47;3.28;;;;;;;9.46;83.51;100273.38;6365691;22;20103;-74
2021/09/27 02:08:54;;;;;;;3.95;3.50;;;;;;;9.45;83.66;100274.28;6365613;22;20025;-75
2021/09/27 02:11:41;;;;;;;4.85;3.70;;;;;;;9.46;83.14;100266.38;6344019;22;20056;-76
2021/09/27 02:14:29;;;;;;;5.13;3.15;;;;;;;9.51;83.50;100279.22;6365362;22;20082;-76
2021/09/27 02:17:20;;;;;;;3.30;3.10;;;;;;;9.48;83.81;100281.94;6365155;22;20083;-76
2021/09/27 02:20:15;;;;;;;4.47;4.00;;;;;;;9.50;83.89;100277.50;6366983;22;20025;-74
2021/09/27 02:23:04;;;;;;;2.70;2.60;;;;;;;9.52;83.18;100280.91;6344571;22;20483;-74
2021/09/27 02:25:52;;;;;;;4.00;3.72;;;;;;;9.54;82.82;100279.94;6365092;22;20533;-75
2021/09/27 02:28:36;;;;;;;4.18;3.95;;;;;;;9.52;83.91;100279.13;6366697;22;20025;-75
2021/09/27 02:31:45;;;;;;;3.75;3.55;;;;;;;9.54;83.51;100289.50;6365475;22;20392;-75
2021/09/27 02:34:41;;;;;;;5.95;5.50;;;;;;;9.58;82.67;100293.69;6366682;22;20029;-76
2021/09/27 02:37:31;;;;;;;6.65;2.80;;;;;;;9.55;83.31;100293.81;6365568;22;20028;-76
2021/09/27 02:40:16;;;;;;;3.10;2.78;;;;;;;9.57;83.16;100298.03;6366964;22;20025;-76
2021/09/27 02:43:02;;;;;;;2.33;2.22;;;;;;;9.57;83.23;100289.38;6367390;22;20565;-76
2021/09/27 02:45:47;;;;;;;2.17;2.00;;;;;;;9.58;83.29;100298.88;6321190;22;20075;-77
2021/09/27 02:48:40;;;;;;;1.63;1.63;;;;;;;9.56;82.37;100298.09;6342680;22;20065;-77
2021/09/27 02:51:25;;;;;;;4.35;3.03;;;;;;;9.60;82.65;100302.25;6365043;22;20025;-76
2021/09/27 02:54:10;;;;;;;2.35;2.25;;;;;;;9.59;81.91;100288.38;6364845;22;20503;-77
2021/09/27 02:57:17;;;;;;;2.13;2.03;;;;;;;9.61;82.40;100286.56;6365146;22;20029;-76
2021/09/27 03:00:04;;;;;;;3.20;3.08;;;;;;;9.61;82.45;100302.22;6367084;22;20067;-72
2021/09/27 03:03:06;;;;;;;2.67;2.45;;;;;;;9.63;82.06;100302.97;6365530;22;20044;-78
2021/09/27 03:06:19;;;;;;;1.90;1.83;;;;;;;9.63;82.23;100304.72;6368916;22;20029;-83
2021/09/27 03:09:11;;;;;;;3.70;3.50;;;;;;;9.64;82.07;100301.22;6334065;22;20033;-80
2021/09/27 03:12:05;;;;;;;2.60;2.50;;;;;;;9.61;82.42;100311.78;6349076;22;20136;-81
2021/09/27 03:15:01;;;;;;;2.30;2.10;;;;;;;9.58;81.89;100298.88;6370799;22;20166;-82
2021/09/27 03:18:09;;;;;;;2.00;1.90;;;;;;;9.61;81.50;100306.56;6369305;22;20029;-76
2021/09/27 03:21:23;;;;;;;2.95;2.85;;;;;;;9.58;82.15;100312.78;6365972;22;20024;-75
2021/09/27 03:24:32;;;;;;;1.38;1.35;;;;;;;9.62;81.39;100303.88;6366702;22;20056;-76
2021/09/27 03:27:37;;;;;;;3.65;3.20;;;;;;;9.60;81.75;100310.09;6366200;22;20029;-77
2021/09/27 03:30:24;;;;;;;8.93;2.90;;;;;;;9.61;81.39;100317.84;6365401;22;20094;-77
2021/09/27 03:33:33;;;;;;;2.67;2.58;;;;;;;9.64;80.77;100319.47;6366843;22;20105;-76
2021/09/27 03:36:42;;;;;;;2.13;2.03;;;;;;;9.64;80.89;100324.69;6366285;22;20141;-77
2021/09/27 03:40:03;;;;;;;5.03;4.00;;;;;;;9.64;80.50;100322.94;6365386;22;20024;-76
2021/09/27 03:43:12;;;;;;;1.58;1.58;;;;;;;9.63;80.35;100309.94;6366746;22;20365;-77
2021/09/27 03:46:18;;;;;;;2.22;1.73;;;;;;;9.61;80.06;100330.03;6369928;22;20033;-82
2021/09/27 03:49:12;;;;;;;3.33;3.03;;;;;;;9.61;79.77;100332.63;6350092;22;20037;-83
2021/09/27 03:52:06;;;;;;;2.72;2.63;;;;;;;9.61;80.19;100324.81;6372085;22;20021;-83
2021/09/27 03:54:59;;;;;;;2.83;2.60;;;;;;;9.57;80.40;100331.06;6371440;22;20083;-83
2021/09/27 03:58:05;;;;;;;5.88;3.35;;;;;;;9.55;79.56;100335.50;6376330;22;20048;-81
2021/09/27 04:00:50;;;;;;;2.70;2.35;;;;;;;9.54;79.78;100334.66;6374522;22;20057;-82
2021/09/27 04:04:21;;;;;;;2.08;1.98;;;;;;;9.55;80.19;100344.19;6349698;22;20161;-80
2021/09/27 04:07:11;;;;;;;1.75;1.73;;;;;;;9.53;79.38;100339.94;6308960;22;20026;-81
2021/09/27 04:10:07;;;;;;;2.60;2.47;;;;;;;9.49;79.79;100348.81;6373467;22;20314;-82
2021/09/27 04:12:54;;;;;;;1.98;1.90;;;;;;;9.49;80.07;100343.59;6348915;22;20021;-82
2021/09/27 04:15:48;;;;;;;9.32;3.28;;;;;;;9.49;79.76;100354.03;6368386;22;20078;-82
2021/09/27 04:18:38;;;;;;;1.85;1.80;;;;;;;9.49;79.72;100349.63;6370788;22;20144;-83
2021/09/27 04:21:56;;;;;;;2.33;1.50;;;;;;;9.48;78.78;100342.75;6368921;22;20167;-81
2021/09/27 04:24:47;;;;;;;1.52;1.45;;;;;;;9.48;79.03;100326.25;6364726;22;20115;-82
2021/09/27 04:28:08;;;;;;;1.80;1.70;;;;;;;9.46;78.96;100339.34;6367607;22;20496;-80
2021/09/27 04:30:58;;;;;;;2.80;2.15;;;;;;;9.43;78.82;100345.53;6369983;22;20060;-83
2021/09/27 04:33:59;;;;;;;2.05;1.95;;;;;;;9.48;78.95;100344.50;6372794;22;20078;-83
2021/09/27 04:36:45;;;;;;;1.13;1.13;;;;;;;9.48;78.90;100347.09;6372960;22;20504;-84
2021/09/27 04:39:32;;;;;;;2.20;1.92;;;;;;;9.52;78.12;100352.09;6328779;22;20028;-83
2021/09/27 04:42:55;;;;;;;1.20;1.20;;;;;;;9.51;78.02;100363.47;6376223;22;20073;-84
2021/09/27 04:45:57;;;;;;;1.60;1.58;;;;;;;9.50;78.15;100366.97;6351353;22;20043;-84
2021/09/27 04:48:54;;;;;;;2.97;2.78;;;;;;;9.52;77.45;100359.09;6353551;22;20488;-82
2021/09/27 04:52:04;;;;;;;3.40;2.92;;;;;;;9.54;77.89;100359.88;6352340;22;20034;-82
2021/09/27 04:55:05;;;;;;;1.90;1.80;;;;;;;9.55;78.18;100353.75;6372647;22;20029;-80
2021/09/27 04:57:49;;;;;;;1.27;1.27;;;;;;;9.56;77.50;100361.50;6371364;22;20026;-83
2021/09/27 05:00:43;;;;;;;2.20;1.98;;;;;;;9.53;78.08;100384.22;6373637;22;20080;-82
2021/09/27 05:03:54;;;;;;;4.13;2.63;;;;;;;9.53;78.05;100366.00;6333580;22;20051;-82
2021/09/27 05:06:50;;;;;;;3.72;2.13;;;;;;;9.56;77.68;100360.66;6380473;22;20052;-82
2021/09/27 05:10:00;;;;;;;2.08;1.88;;;;;;;9.53;77.99;100340.78;6386874;22;20075;-83
2021/09/27 05:12:56;;;;;;;2.13;2.03;;;;;;;9.56;78.13;100366.72;6379796;22;20028;-84
2021/09/27 05:16:21;;;;;;;1.35;1.35;;;;;;;9.64;77.93;100350.75;6378285;22;20052;-80
2021/09/27 05:19:20;;;;;;;6.43;3.15;;;;;;;9.59;77.86;100363.13;6353150;22;20087;-82
2021/09/27 05:26:43;;;;;;;2.40;2.30;;;;;;;9.63;78.29;100369.91;6314609;22;20101;-85
2021/09/27 05:29:34;;;;;;;2.60;2.35;;;;;;;9.65;77.32;100373.31;6351550;22;20080;-84
2021/09/27 05:32:38;;;;;;;2.03;1.65;;;;;;;9.69;77.33;100377.44;6368422;22;20067;-84
2021/09/27 05:35:35;;;;;;;1.30;1.25;;;;;;;9.68;77.93;100381.00;6380402;22;20570;-85
2021/09/27 05:38:23;;;;;;;3.15;2.53;;;;;;;9.61;77.92;100358.69;6377380;22;20024;-82
2021/09/27 05:41:23;;;;;;;1.60;1.60;;;;;;;9.60;78.04;100372.63;6371400;22;20025;-85
2021/09/27 05:44:30;;;;;;;2.75;2.55;;;;;;;9.67;78.44;100384.50;6367672;22;20028;-78
2021/09/27 05:47:22;;;;;;;5.03;1.92;;;;;;;9.64;78.72;100382.88;6376806;22;20041;-84
2021/09/27 05:50:50;;;;;;;4.47;1.55;;;;;;;9.66;78.08;100373.22;6389292;22;20068;-85
2021/09/27 05:53:35;;;;;;;2.72;2.60;;;;;;;9.66;77.90;100399.28;6372670;22;20029;-84
2021/09/27 05:56:35;;;;;;;1.73;1.60;;;;;;;9.69;77.67;100374.84;6371205;22;20044;-83
2021/09/27 05:59:35;;;;;;;3.08;2.88;;;;;;;9.70;77.81;100368.72;6374592;22;20505;-83
2021/09/27 06:02:56;;;;;;;1.80;1.80;;;;;;;9.78;78.08;100403.16;6373592;22;20357;-80
2021/09/27 06:05:54;;;;;;;1.67;1.57;;;;;;;9.74;78.35;100393.75;6350179;22;20033;-81
2021/09/27 06:09:00;;;;;;;5.80;2.17;;;;;;;9.74;78.60;100406.81;6367946;22;20075;-82
2021/09/27 06:12:00;;;;;;;1.60;1.60;;;;;;;9.74;77.52;100375.50;6352300;22;20072;-82
2021/09/27 06:14:45;;;;;;;4.00;1.92;;;;;;;9.77;77.39;100399.69;6367025;22;20083;-81
2021/09/27 06:17:38;;;;;;;1.02;1.02;;;;;;;9.85;77.54;100410.63;6355667;22;20075;-72
2021/09/27 06:21:18;;;;;;;1.73;1.63;;;;;;;9.81;78.29;100413.47;6364711;22;20063;-76
2021/09/27 06:24:39;;;;;;;4.70;1.48;;;;;;;9.77;77.39;100406.66;6321367;22;20037;-76
2021/09/27 06:27:47;;;;;;;1.90;1.80;;;;;;;9.83;78.06;100422.06;6342695;22;20148;-74
2021/09/27 06:31:01;;;;;;;1.40;1.40;;;;;;;9.79;77.79;100436.97;6364351;22;20044;-74
2021/09/27 06:34:23;;;;;;;2.08;1.98;;;;;;;9.76;77.97;100436.25;6293725;22;20026;-78
2021/09/27 06:37:08;;;;;;;2.30;2.10;;;;;;;9.77;77.78;100424.91;6363288;22;20020;-77
2021/09/27 06:39:53;;;;;;;1.00;1.00;;;;;;;9.79;77.25;100410.03;6342540;22;20079;-78
2021/09/27 06:42:37;;;;;;;10.55;2.50;;;;;;;9.79;78.19;100456.97;6342106;22;20633;-76
2021/09/27 06:45:22;;;;;;;1.88;1.80;;;;;;;9.85;78.08;100446.28;6364076;22;20373;-77
2021/09/27 06:48:06;;;;;;;1.27;1.27;;;;;;;9.87;77.55;100432.28;6364838;22;20053;-72
2021/09/27 06:50:51;;;;;;;3.38;3.08;;;;;;;9.89;77.51;100427.00;6365594;22;20051;-73
2021/09/27 06:53:36;;;;;;;1.23;1.23;;;;;;;9.88;77.56;100436.56;6364188;22;20053;-73
2021/09/27 06:56:20;;;;;;;1.90;1.80;;;;;;;9.93;77.38;100444.22;6365360;22;20102;-72
2021/09/27 06:59:05;;;;;;;1.95;1.95;;;;;;;9.96;77.14;100431.03;6364319;22;20024;-76
2021/09/27 07:01:50;;;;;;;2.83;2.17;;;;;;;9.99;77.50;100450.91;6341341;22;20362;-78
2021/09/27 07:04:34;;;;;;;0.82;0.82;;;;;;;9.96;77.86;100451.91;6320373;22;20025;-78
2021/09/27 07:07:19;;;;;;;1.20;1.20;;;;;;;9.96;77.52;100457.13;6365334;22;20152;-78
2021/09/27 07:10:05;;;;;;;1.08;1.08;;;;;;;10.03;77.15;100450.75;6364530;22;20065;-76
2021/09/27 07:12:50;;;;;;;4.60;3.10;;;;;;;10.04;76.74;100441.16;6364515;22;20028;-77
2021/09/27 07:15:35;;;;;;;3.40;3.03;;;;;;;10.06;77.06;100465.41;6366127;22;20052;-75
2021/09/27 07:18:19;;;;;;;5.00;3.95;;;;;;;10.12;77.65;100467.75;6364163;22;20030;-80
2021/09/27 07:21:05;;;;;;;1.98;1.88;;;;;;;10.10;77.58;100473.03;6365618;22;20033;-78
2021/09/27 07:23:49;;;;;;;5.22;2.40;;;;;;;10.09;76.59;100440.03;6366166;22;20066;-78
2021/09/27 07:26:34;;;;;;;5.80;2.60;;;;;;;10.20;77.02;100456.13;6342731;22;20526;-79
2021/09/27 07:29:21;;;;;;;10.50;2.97;;;;;;;10.16;76.10;100467.59;6365831;22;20061;-77
2021/09/27 07:32:06;;;;;;;3.80;2.75;;;;;;;10.25;75.99;100451.53;6365188;22;20024;-78
2021/09/27 07:34:51;;;;;;;2.67;1.63;;;;;;;10.28;75.58;100481.84;6364593;22;20033;-77
2021/09/27 07:37:38;;;;;;;2.00;1.65;;;;;;;10.39;76.09;100464.81;6387649;22;20051;-79
2021/09/27 07:40:28;;;;;;;0.95;0.95;;;;;;;10.38;75.77;100484.00;6365841;22;20033;-78
2021/09/27 07:43:12;;;;;;;2.20;1.73;;;;;;;10.42;75.63;100475.13;6365957;22;20029;-79
2021/09/27 07:45:57;;;;;;;6.57;2.80;;;;;;;10.34;74.01;100479.81;6365967;22;20029;-76
2021/09/27 07:48:42;;;;;;;2.80;2.65;;;;;;;10.49;75.51;100482.69;6365221;22;20076;-77
2021/09/27 07:51:27;;;;;;;2.78;2.58;;;;;;;10.42;74.12;100472.53;6363822;22;20024;-77
2021/09/27 07:54:11;;;;;;;3.15;2.67;;;;;;;10.37;74.71;100463.22;6365027;22;20029;-76
2021/09/27 07:56:57;;;;;;;2.03;1.73;;;;;;;10.43;75.34;100497.72;6365111;22;20526;-74
2021/09/27 07:59:41;;;;;;;2.75;2.00;;;;;;;10.47;75.24;100495.78;6362344;22;20200;-71
2021/09/27 08:02:29;;;;;;;5.05;2.08;;;;;;;10.38;75.19;100489.22;6363832;22;20025;-73
2021/09/27 08:05:17;;;;;;;2.30;1.60;;;;;;;10.40;75.68;100494.38;6364699;22;20113;-71
2021/09/27 08:08:01;;;;;;;6.68;2.08;;;;;;;10.31;75.26;100503.44;6364977;22;20360;-73
2021/09/27 08:10:46;;;;;;;6.38;3.10;;;;;;;10.24;75.18;100512.44;6365090;22;20030;-73
2021/09/27 08:13:37;;;;;;;1.50;1.48;;;;;;;10.30;75.09;100504.38;6341684;22;20033;-73
2021/09/27 08:16:23;;;;;;;14.73;1.80;;;;;;;10.28;75.36;100516.63;6365058;22;20021;-73
2021/09/27 08:19:08;;;;;;;2.17;2.08;;;;;;;10.17;74.77;100521.47;6364788;22;20119;-73
2021/09/27 08:21:54;;;;;;;7.40;2.60;;;;;;;10.11;75.22;100516.47;6364322;22;20143;-73
2021/09/27 08:24:38;;;;;;;2.55;1.30;;;;;;;10.11;75.11;100526.91;6364650;22;20521;-74
2021/09/27 08:27:23;;;;;;;3.47;1.65;;;;;;;10.08;75.81;100532.25;6363183;22;20496;-74
2021/09/27 08:30:09;;;;;;;1.65;1.55;;;;;;;10.05;76.46;100526.31;6361678;22;20102;-74
2021/09/27 08:32:53;;;;;;;20.35;3.25;;;;;;;10.02;75.94;100521.22;6361718;22;20033;-73
2021/09/27 08:35:38;;;;;;;7.68;2.33;;;;;;;9.96;75.49;100543.19;6365506;22;20029;-78
2021/09/27 08:38:23;;;;;;;1.42;1.42;;;;;;;9.96;76.34;100530.16;6364798;22;20100;-77
2021/09/27 08:41:21;;;;;;;4.50;2.53;;;;;;;9.93;76.90;100541.56;6368215;22;20025;-76
2021/09/27 08:44:18;;;;;;;18.65;2.97;;;;;;;10.01;76.30;100532.59;6352989;22;20036;-76
2021/09/27 08:47:09;;;;;;;2.33;2.13;;;;;;;10.02;76.01;100523.81;6376222;22;20033;-77
2021/09/27 08:50:31;;;;;;;2.90;2.00;;;;;;;10.06;75.85;100534.09;6364647;22;20032;-75
2021/09/27 08:53:22;;;;;;;3.92;2.28;;;;;;;10.05;75.56;100527.16;6364608;22;20427;-76
2021/09/27 08:56:28;;;;;;;9.95;3.35;;;;;;;10.05;76.45;100542.81;6364903;22;20052;-77
2021/09/27 08:59:25;;;;;;;1.95;1.60;;;;;;;10.04;76.49;100511.59;6363174;22;20025;-78
2021/09/27 09:02:16;;;;;;;8.52;3.78;;;;;;;10.02;76.53;100545.53;6362525;22;20095;-77
2021/09/27 09:05:08;;;;;;;3.83;3.53;;;;;;;10.03;76.75;100552.47;6340548;22;20045;-76
2021/09/27 09:08:05;;;;;;;6.18;2.25;;;;;;;10.04;76.18;100545.50;6364156;22;20025;-75
2021/09/27 09:10:59;;;;;;;7.43;1.45;;;;;;;10.13;75.31;100539.88;6344295;22;20029;-77
2021/09/27 09:13:45;;;;;;;24.63;2.80;;;;;;;10.18;75.75;100548.38;6366114;22;20033;-77
2021/09/27 09:16:30;;;;;;;16.15;2.75;;;;;;;10.11;76.23;100542.56;6364893;22;20075;-77
2021/09/27 09:19:17;;;;;;;1.45;1.45;;;;;;;10.22;76.34;100545.59;6365201;22;20060;-78
2021/09/27 09:22:20;;;;;;;1.83;1.73;;;;;;;10.23;76.69;100552.53;6364955;22;20032;-79
2021/09/27 09:25:10;;;;;;;3.17;1.85;;;;;;;10.18;77.19;100544.03;6321784;22;20536;-77
2021/09/27 09:27:55;;;;;;;1.63;1.63;;;;;;;10.13;76.53;100553.78;6342986;22;20033;-77
2021/09/27 09:30:44;;;;;;;2.03;1.92;;;;;;;10.14;76.58;100555.53;6342595;22;20504;-78
2021/09/27 09:33:52;;;;;;;3.60;3.20;;;;;;;10.11;77.02;100560.00;6322548;22;20062;-79
2021/09/27 09:36:40;;;;;;;14.02;1.38;;;;;;;10.10;75.79;100564.34;6343181;22;20117;-78
2021/09/27 09:39:45;;;;;;;3.45;1.85;;;;;;;10.08;76.70;100565.34;6363667;22;20117;-78
2021/09/27 09:42:32;;;;;;;7.25;1.70;;;;;;;10.09;76.10;100567.88;6342726;22;20025;-81
2021/09/27 09:45:18;;;;;;;3.90;2.40;;;;;;;9.99;76.40;100561.31;6343395;22;20136;-80
2021/09/27 09:48:19;;;;;;;3.38;2.55;;;;;;;10.06;76.67;100575.81;6343878;22;20474;-78
2021/09/27 09:51:39;;;;;;;;;;;;;;;10.08;76.66;100568.78;6342181;22;20034;-73
2021/09/27 09:54:25;;;;;;;10.38;1.92;;;;;;;10.06;76.68;100573.22;6216957;23;20302;-73
2021/09/27 09:57:37;;;;;;;2.33;2.13;;;;;;;10.04;76.81;100576.81;6365664;22;20150;-74
2021/09/27 10:00:52;;;;;;;6.43;2.63;;;;;;;10.08;76.53;100570.56;6365632;22;20029;-73
2021/09/27 10:03:38;;;;;;;1.38;1.27;;;;;;;10.15;75.91;100575.47;6365863;22;20032;-72
2021/09/27 10:06:32;;;;;;;3.45;2.50;;;;;;;10.20;75.92;100578.75;6365840;22;20029;-74
2021/09/27 10:09:18;;;;;;;2.35;1.92;;;;;;;10.25;75.82;100574.19;6365839;22;20040;-72
2021/09/27 10:12:06;;;;;;;4.50;2.08;;;;;;;10.26;75.30;100578.50;6365596;22;20033;-73
2021/09/27 10:14:50;;;;;;;8.57;3.42;;;;;;;10.26;75.25;100575.03;6340785;22;20176;-74
2021/09/27 10:17:38;;;;;;;7.47;2.70;;;;;;;10.27;75.00;100572.38;6365640;22;20499;-77
2021/09/27 10:20:24;;;;;;;3.40;2.08;;;;;;;10.43;74.90;100586.47;6366031;22;20025;-78
2021/09/27 10:23:12;;;;;;;7.32;2.63;;;;;;;10.49;74.52;100584.50;6364235;22;20025;-75
2021/09/27 10:26:19;;;;;;;13.32;2.17;;;;;;;10.53;74.60;100583.47;6364041;22;20106;-76
2021/09/27 10:29:13;;;;;;;18.92;2.85;;;;;;;10.50;74.56;100583.59;6364925;22;20105;-76
2021/09/27 10:32:26;;;;;;;9.10;2.97;;;;;;;10.59;74.23;100588.41;6363993;22;20029;-74
2021/09/27 10:35:33;;;;;;;2.35;1.73;;;;;;;10.82;73.03;100578.66;6364611;22;20064;-75
2021/09/27 10:38:29;;;;;;;2.80;1.70;;;;;;;10.99;72.93;100580.53;6364621;22;20043;-77
2021/09/27 10:41:37;;;;;;;2.60;1.25;;;;;;;11.27;71.93;100588.81;6366656;22;20515;-83
2021/09/27 10:44:26;;;;;;;3.42;2.42;;;;;;;11.17;71.92;100590.13;6363860;22;20047;-81
2021/09/27 10:47:12;;;;;;;2.35;2.25;;;;;;;11.17;72.73;100591.91;6344440;22;20030;-78
2021/09/27 10:50:04;;;;;;;6.43;1.42;;;;;;;11.39;71.85;100590.00;6365793;22;20029;-78
2021/09/27 10:52:49;;;;;;;6.45;2.22;;;;;;;11.27;72.52;100587.94;6366907;22;20021;-77
2021/09/27 10:55:44;;;;;;;3.53;2.40;;;;;;;11.21;72.86;100580.41;6366488;22;20083;-79
2021/09/27 10:58:31;;;;;;;16.60;1.65;;;;;;;11.40;72.27;100586.47;6365162;22;20025;-77
2021/09/27 11:01:51;;;;;;;3.08;1.58;;;;;;;11.49;70.92;100573.81;6363872;22;20052;-79
2021/09/27 11:04:44;;;;;;;8.35;3.63;;;;;;;11.54;70.59;100564.91;6365410;22;20254;-79
2021/09/27 11:07:41;;;;;;;18.27;1.90;;;;;;;11.27;71.49;100573.13;6319830;22;20028;-79
2021/09/27 11:10:40;;;;;;;10.57;3.30;;;;;;;11.49;70.63;100570.34;6363095;22;20045;-78
2021/09/27 11:13:39;;;;;;;1.45;1.45;;;;;;;11.33;69.88;100567.59;6340341;22;20074;-79
2021/09/27 11:16:31;;;;;;;12.52;2.45;;;;;;;11.40;70.55;100589.94;6365000;22;20030;-77
2021/09/27 11:19:37;;;;;;;6.82;3.90;;;;;;;11.23;71.26;100589.00;6363081;22;20411;-77
2021/09/27 11:22:55;;;;;;;9.00;4.20;;;;;;;11.02;71.27;100593.44;6365116;22;20366;-76
2021/09/27 11:25:40;;;;;;;1.05;1.05;;;;;;;11.01;72.17;100590.91;6365112;22;20098;-77
2021/09/27 11:28:24;;;;;;;4.05;3.40;;;;;;;10.86;71.90;100587.22;6341526;22;20032;-78
2021/09/27 11:31:39;;;;;;;3.42;2.90;;;;;;;10.59;74.50;100585.78;6362770;22;20029;-80
2021/09/27 11:34:32;;;;;;;4.78;3.38;;;;;;;10.39;75.59;100600.56;6355426;22;20063;-77
2021/09/27 11:37:20;;;;;;;3.03;1.80;;;;;;;10.42;76.47;100600.41;6363488;22;20544;-79
2021/09/27 11:40:10;;;;;;;23.42;3.30;;;;;;;10.39;76.46;100595.34;6364992;22;20029;-77
2021/09/27 11:43:05;;;;;;;5.55;2.40;;;;;;;10.38;76.10;100591.00;6364975;22;20048;-78
2021/09/27 11:45:52;;;;;;;4.72;2.88;;;;;;;10.36;76.29;100605.06;6364047;22;20059;-79
2021/09/27 11:48:48;;;;;;;2.45;2.33;;;;;;;10.30;75.40;100595.72;6363394;22;20078;-79
2021/09/27 11:51:40;;;;;;;2.33;2.17;;;;;;;10.30;75.86;100606.16;6365262;22;20087;-77
2021/09/27 11:54:30;;;;;;;2.97;2.05;;;;;;;10.31;76.58;100618.28;6363861;22;20033;-77
2021/09/27 11:57:32;;;;;;;2.88;2.70;;;;;;;10.32;76.26;100620.00;6342405;22;20033;-78
2021/09/27 12:00:20;;;;;;;15.13;2.15;;;;;;;10.40;76.66;100630.13;6364019;22;20071;-80
2021/09/27 12:03:23;;;;;;;1.52;1.50;;;;;;;10.39;76.24;100620.59;6364204;22;20037;-78
2021/09/27 12:06:20;;;;;;;1.85;1.75;;;;;;;10.31;75.32;100607.84;6364030;22;20048;-73
2021/09/27 12:09:07;;;;;;;2.92;2.08;;;;;;;10.32;75.79;100617.38;6363283;22;20083;-73
2021/09/27 12:11:54;;;;;;;1.38;1.08;;;;;;;10.37;75.23;100627.63;6364454;22;20029;-73
2021/09/27 12:14:42;;;;;;;8.65;3.38;;;;;;;10.34;75.87;100617.31;6343209;22;20521;-73
2021/09/27 12:17:35;;;;;;;7.60;2.58;;;;;;;10.38;75.03;100611.91;6343117;22;20050;-74
2021/09/27 12:20:26;;;;;;;3.47;2.60;;;;;;;10.38;74.59;100630.16;6372369;22;20028;-83
2021/09/27 12:23:11;;;;;;;6.75;2.55;;;;;;;10.39;75.25;100616.22;6351409;22;20090;-75
2021/09/27 12:25:55;;;;;;;1.77;1.73;;;;;;;10.44;74.62;100632.53;6372686;22;20381;-75
2021/09/27 12:28:40;;;;;;;2.88;2.60;;;;;;;10.54;74.75;100625.16;6371871;22;20119;-73
2021/09/27 12:31:24;;;;;;;2.55;2.35;;;;;;;10.68;73.17;100606.28;6365168;22;20074;-74
2021/09/27 12:34:12;;;;;;;12.40;2.67;;;;;;;10.71;72.93;100614.84;6366555;22;20029;-74
2021/09/27 12:36:57;;;;;;;6.03;3.17;;;;;;;10.97;72.94;100626.75;6364863;22;20044;-72
2021/09/27 12:39:42;;;;;;;2.10;2.00;;;;;;;10.90;71.99;100607.03;6364762;22;20055;-75
2021/09/27 12:42:28;;;;;;;2.88;2.60;;;;;;;10.77;72.56;100614.56;6343218;22;20405;-74
2021/09/27 12:45:32;;;;;;;1.65;1.65;;;;;;;10.98;72.93;100623.25;6365053;22;20076;-73
2021/09/27 12:48:28;;;;;;;2.10;2.00;;;;;;;10.97;72.21;100626.75;6366084;22;20025;-74
2021/09/27 12:51:26;;;;;;;5.03;3.78;;;;;;;11.04;72.65;100629.94;6365445;22;20025;-75
2021/09/27 12:54:45;;;;;;;1.83;1.77;;;;;;;11.02;72.50;100624.81;6365939;22;20030;-76
2021/09/27 12:57:36;;;;;;;3.85;2.78;;;;;;;10.86;72.54;100621.19;6324759;22;20057;-73
2021/09/27 13:00:31;;;;;;;2.78;2.03;;;;;;;10.81;72.52;100631.81;6364864;22;20079;-74
2021/09/27 13:03:19;;;;;;;2.28;2.08;;;;;;;10.81;73.10;100628.34;6366334;22;20484;-74
2021/09/27 13:06:11;;;;;;;2.15;2.05;;;;;;;10.75;72.25;100621.63;6342951;22;20053;-78
2021/09/27 13:09:19;;;;;;;7.53;3.13;;;;;;;10.73;72.80;100623.44;6342539;22;20029;-73
2021/09/27 13:12:30;;;;;;;14.05;2.65;;;;;;;10.69;72.08;100623.66;6365869;22;20025;-73
2021/09/27 13:15:17;;;;;;;;;;;;;;;10.72;71.78;100633.97;6367828;22;20490;-73
2021/09/27 13:18:08;;;;;;;1.33;1.33;;;;;;;10.71;71.88;100622.69;6363131;22;20660;-73
2021/09/27 13:21:20;;;;;;;12.27;3.40;;;;;;;10.69;73.23;100636.72;6365855;22;20365;-73
2021/09/27 13:24:07;;;;;;;1.92;1.83;;;;;;;10.65;72.84;100616.88;6365586;22;20487;-73
2021/09/27 13:27:11;;;;;;;2.25;2.15;;;;;;;10.68;72.65;100628.03;6364884;22;20094;-74
2021/09/27 13:30:05;;;;;;;2.47;2.28;;;;;;;10.65;72.65;100630.78;6362693;22;20391;-72
2021/09/27 13:32:51;;;;;;;2.22;2.13;;;;;;;10.62;73.65;100637.88;6365762;22;20432;-72
2021/09/27 13:35:40;;;;;;;2.20;1.95;;;;;;;10.57;73.75;100632.03;6342052;22;20025;-74
2021/09/27 13:38:44;;;;;;;2.00;1.90;;;;;;;10.48;73.73;100653.28;6363617;22;20036;-73
2021/09/27 13:42:04;;;;;;;8.00;1.88;;;;;;;10.37;73.84;100644.13;6342212;22;20033;-72